Time;durP1;ratioP1;P1;durP2;ratioP2;P2;SDS_P1;SDS_P2;PMS_P1;PMS_P2;Temp;Humidity;BMP_temperature;BMP_pressure;BME280_temperature;BME280_humidity;BME280_pressure;Samples;Min_cycle;Max_cycle;Signal;HPM_P1;HPM_P2
2020/12/02 00:01:23;;;;;;;25.73;10.00;;;;;;;1.28;100.00;96290.06;5080120;28;20212;-70
2020/12/02 00:03:55;;;;;;;24.57;9.77;;;;;;;1.26;100.00;96294.56;5079212;28;20650;-70
2020/12/02 00:06:22;;;;;;;22.20;9.17;;;;;;;1.27;100.00;96291.03;5077783;28;20286;-70
2020/12/02 00:08:57;;;;;;;21.90;8.93;;;;;;;1.29;100.00;96299.50;5078908;28;20231;-70
2020/12/02 00:11:26;;;;;;;24.90;9.57;;;;;;;1.27;100.00;96297.97;5079486;28;20268;-70
2020/12/02 00:13:52;;;;;;;23.07;9.33;;;;;;;1.31;100.00;96291.59;5078691;28;20702;-70
2020/12/02 00:16:21;;;;;;;22.87;9.50;;;;;;;1.20;100.00;96289.03;5078380;28;20717;-70
2020/12/02 00:18:51;;;;;;;29.33;9.60;;;;;;;1.27;100.00;96290.19;5078625;28;20224;-70
2020/12/02 00:21:18;;;;;;;26.53;10.13;;;;;;;1.33;100.00;96285.34;5079370;28;20203;-70
2020/12/02 00:23:44;;;;;;;20.50;9.00;;;;;;;1.32;100.00;96278.53;5079112;28;20285;-69
2020/12/02 00:26:10;;;;;;;25.03;10.37;;;;;;;1.40;100.00;96273.56;5077907;28;20231;-70
2020/12/02 00:28:37;;;;;;;24.80;10.13;;;;;;;1.34;100.00;96276.63;5078878;28;20231;-70
2020/12/02 00:31:03;;;;;;;24.33;9.33;;;;;;;1.26;100.00;96286.78;5078469;28;20923;-70
2020/12/02 00:33:29;;;;;;;27.60;10.20;;;;;;;1.33;100.00;96282.75;5078658;28;20215;-70
2020/12/02 00:35:56;;;;;;;24.47;9.67;;;;;;;1.48;100.00;96278.94;5077987;28;20658;-70
2020/12/02 00:38:23;;;;;;;24.63;10.17;;;;;;;1.58;100.00;96269.50;5078789;28;20228;-70
2020/12/02 00:40:49;;;;;;;25.03;9.93;;;;;;;1.55;100.00;96269.72;5078466;28;20216;-70
2020/12/02 00:43:18;;;;;;;25.40;10.40;;;;;;;1.35;100.00;96275.69;5078443;28;20299;-70
2020/12/02 00:45:45;;;;;;;29.03;10.13;;;;;;;1.19;100.00;96277.81;5077851;28;20211;-70
2020/12/02 00:48:17;;;;;;;28.60;10.70;;;;;;;1.16;100.00;96273.81;5078304;28;20231;-70
2020/12/02 00:50:43;;;;;;;26.47;10.43;;;;;;;1.20;100.00;96276.88;5078344;28;20219;-70
2020/12/02 00:53:12;;;;;;;29.57;10.57;;;;;;;1.13;100.00;96281.84;5078600;28;20199;-70
2020/12/02 00:55:39;;;;;;;27.13;9.33;;;;;;;1.28;100.00;96271.09;5077581;28;20204;-70
2020/12/02 00:58:09;;;;;;;28.50;10.30;;;;;;;1.24;100.00;96274.88;5078008;28;20583;-70
2020/12/02 01:00:38;;;;;;;27.40;9.83;;;;;;;1.30;100.00;96282.19;5078301;28;20210;-70
2020/12/02 01:03:11;;;;;;;26.13;10.97;;;;;;;1.17;100.00;96280.66;5078054;28;20204;-70
2020/12/02 01:05:37;;;;;;;25.97;9.80;;;;;;;1.18;100.00;96279.72;5077080;28;20605;-70
2020/12/02 01:08:18;;;;;;;26.43;10.13;;;;;;;1.18;100.00;96282.31;5077882;28;20220;-70
2020/12/02 01:10:45;;;;;;;24.73;9.80;;;;;;;1.38;100.00;96272.81;5078024;28;20207;-70
2020/12/02 01:13:11;;;;;;;21.47;8.87;;;;;;;1.34;100.00;96273.22;5077529;28;20210;-70
2020/12/02 01:15:37;;;;;;;24.80;8.87;;;;;;;1.35;100.00;96272.25;5077071;28;20742;-70
2020/12/02 01:18:20;;;;;;;21.53;9.17;;;;;;;1.35;100.00;96267.88;5078719;28;20236;-70
2020/12/02 01:20:53;;;;;;;24.40;9.67;;;;;;;1.39;100.00;96278.88;5077668;28;20207;-70
2020/12/02 01:23:19;;;;;;;25.07;9.33;;;;;;;1.31;100.00;96278.63;5077626;28;20196;-70
2020/12/02 01:25:47;;;;;;;27.63;9.93;;;;;;;1.19;100.00;96282.19;5077270;28;20226;-70
2020/12/02 01:28:22;;;;;;;24.20;8.97;;;;;;;1.02;100.00;96282.69;5077490;28;20238;-70
2020/12/02 01:30:49;;;;;;;23.53;9.17;;;;;;;1.01;100.00;96281.03;5077396;28;20207;-70
2020/12/02 01:33:16;;;;;;;22.70;9.37;;;;;;;1.02;100.00;96274.06;5077716;28;20196;-70
2020/12/02 01:35:45;;;;;;;24.17;9.43;;;;;;;1.08;100.00;96274.41;5076471;28;20227;-70
2020/12/02 01:38:13;;;;;;;22.93;9.80;;;;;;;0.94;100.00;96277.25;5077184;28;20216;-70
2020/12/02 01:40:40;;;;;;;23.63;9.73;;;;;;;1.02;100.00;96276.66;5077438;28;20746;-70
2020/12/02 01:43:08;;;;;;;23.90;9.40;;;;;;;1.09;100.00;96276.06;5077635;28;20208;-70
2020/12/02 01:45:37;;;;;;;24.67;9.60;;;;;;;1.04;100.00;96279.97;5076667;28;20200;-70
2020/12/02 01:48:24;;;;;;;24.63;9.53;;;;;;;1.17;100.00;96278.06;5077030;28;20234;-70
2020/12/02 01:50:58;;;;;;;27.20;10.20;;;;;;;1.19;100.00;96277.81;5074019;28;20204;-70
2020/12/02 01:53:33;;;;;;;21.50;8.90;;;;;;;1.27;100.00;96259.88;5077327;28;20215;-70
2020/12/02 01:56:04;;;;;;;21.20;9.03;;;;;;;1.10;100.00;96261.34;5076164;28;20203;-70
2020/12/02 01:58:41;;;;;;;27.17;9.70;;;;;;;0.94;100.00;96266.03;5077108;28;20235;-70
2020/12/02 02:01:15;;;;;;;24.23;9.03;;;;;;;0.83;100.00;96263.47;5076658;28;20788;-70
2020/12/02 02:03:41;;;;;;;23.00;9.23;;;;;;;1.07;100.00;96267.59;5077090;28;20206;-70
2020/12/02 02:06:13;;;;;;;24.00;9.37;;;;;;;0.99;100.00;96266.53;5076564;28;20657;-70
2020/12/02 02:08:42;;;;;;;19.60;8.37;;;;;;;0.97;100.00;96260.59;5076708;28;21079;-70
2020/12/02 02:11:10;;;;;;;22.07;8.50;;;;;;;0.78;100.00;96260.41;5076976;28;20280;-70
2020/12/02 02:14:05;;;;;;;19.93;8.67;;;;;;;0.77;100.00;96258.75;5077260;28;20214;-70
2020/12/02 02:16:34;;;;;;;19.43;8.13;;;;;;;0.85;100.00;96251.19;5076382;28;20208;-70
2020/12/02 02:19:00;;;;;;;19.53;7.60;;;;;;;0.82;100.00;96247.06;5076653;28;20212;-70
2020/12/02 02:21:33;;;;;;;23.10;8.63;;;;;;;0.94;100.00;96255.66;5077153;28;20586;-70
2020/12/02 02:23:59;;;;;;;20.13;8.20;;;;;;;0.90;100.00;96256.84;5076864;28;20200;-70
2020/12/02 02:26:30;;;;;;;19.63;8.50;;;;;;;1.00;100.00;96253.41;5076008;28;20230;-70
2020/12/02 02:29:03;;;;;;;20.07;8.23;;;;;;;0.61;100.00;96253.91;5076115;28;20223;-70
2020/12/02 02:31:33;;;;;;;20.33;8.53;;;;;;;0.57;100.00;96254.25;5077189;28;20222;-70
2020/12/02 02:34:01;;;;;;;21.20;8.03;;;;;;;0.59;100.00;96255.78;5076678;28;20211;-70
2020/12/02 02:36:29;;;;;;;18.70;8.27;;;;;;;0.54;100.00;96256.28;5075482;28;21213;-70
2020/12/02 02:38:55;;;;;;;21.03;8.33;;;;;;;0.60;100.00;96259.22;5076856;28;20220;-70
2020/12/02 02:41:24;;;;;;;20.93;8.07;;;;;;;0.64;100.00;96258.03;5076909;28;20215;-70
2020/12/02 02:43:51;;;;;;;21.37;8.93;;;;;;;0.64;100.00;96258.03;5076437;28;20203;-70
2020/12/02 02:46:17;;;;;;;22.43;8.93;;;;;;;0.51;100.00;96252.13;5075899;28;20211;-70
2020/12/02 02:48:43;;;;;;;21.63;8.80;;;;;;;0.61;100.00;96253.91;5076651;28;21016;-70
2020/12/02 02:51:09;;;;;;;18.07;8.27;;;;;;;0.84;100.00;96250.38;5076078;28;20211;-70
2020/12/02 02:53:34;;;;;;;20.13;8.33;;;;;;;0.81;100.00;96245.41;5076605;28;20211;-70
2020/12/02 02:56:00;;;;;;;18.23;7.63;;;;;;;0.81;100.00;96260.97;5075929;28;20201;-70
2020/12/02 02:58:28;;;;;;;21.07;8.73;;;;;;;0.78;100.00;96253.44;5076607;28;20226;-70
2020/12/02 03:00:57;;;;;;;19.23;8.10;;;;;;;0.84;100.00;96249.53;5076338;28;20200;-70
2020/12/02 03:03:24;;;;;;;19.90;8.07;;;;;;;0.71;100.00;96252.28;5076810;28;20211;-70
2020/12/02 03:05:50;;;;;;;20.10;8.20;;;;;;;0.76;100.00;96257.94;5074664;28;20222;-70
2020/12/02 03:08:17;;;;;;;19.50;8.50;;;;;;;0.74;100.00;96252.03;5076656;28;20630;-70
2020/12/02 03:10:45;;;;;;;19.10;8.00;;;;;;;0.69;100.00;96250.75;5080115;28;20218;-70
2020/12/02 03:13:21;;;;;;;19.13;8.13;;;;;;;0.72;100.00;96247.91;5080400;28;20196;-70
2020/12/02 03:15:48;;;;;;;22.27;9.20;;;;;;;0.72;100.00;96242.72;5079580;28;20323;-70
2020/12/02 03:18:16;;;;;;;19.97;8.33;;;;;;;0.86;100.00;96251.06;5080186;28;20220;-70
2020/12/02 03:20:47;;;;;;;18.67;8.83;;;;;;;0.48;100.00;96257.53;5080175;28;20207;-70
2020/12/02 03:23:14;;;;;;;19.40;8.37;;;;;;;0.69;100.00;96253.34;5080160;28;20203;-70
2020/12/02 03:25:42;;;;;;;18.37;8.03;;;;;;;0.62;100.00;96250.38;5078835;28;20214;-70
2020/12/02 03:28:09;;;;;;;22.90;9.10;;;;;;;0.83;100.00;96264.28;5079943;28;20296;-70
2020/12/02 03:30:35;;;;;;;17.50;7.90;;;;;;;0.65;100.00;96260.50;5080116;28;20207;-70
2020/12/02 03:33:01;;;;;;;16.80;7.03;;;;;;;0.55;100.00;96261.34;5079704;28;20223;-70
2020/12/02 03:35:28;;;;;;;17.43;7.37;;;;;;;0.71;100.00;96266.97;5079710;28;20226;-70
2020/12/02 03:37:54;;;;;;;18.43;7.60;;;;;;;0.69;100.00;96258.50;5079540;28;20223;-70
2020/12/02 03:40:20;;;;;;;22.00;8.10;;;;;;;0.72;100.00;96260.88;5079181;28;20211;-70
2020/12/02 03:42:46;;;;;;;19.67;7.97;;;;;;;0.73;100.00;96259.94;5079908;28;20216;-70
2020/12/02 03:45:12;;;;;;;17.30;7.50;;;;;;;0.66;100.00;96259.56;5079606;28;20580;-70
2020/12/02 03:47:39;;;;;;;21.57;8.47;;;;;;;0.69;100.00;96256.75;5079417;28;20235;-71
2020/12/02 03:50:05;;;;;;;18.20;7.90;;;;;;;0.69;100.00;96259.31;5079318;28;20689;-70
2020/12/02 03:52:32;;;;;;;18.40;7.47;;;;;;;0.75;100.00;96256.28;5079712;28;20204;-71
2020/12/02 03:54:58;;;;;;;21.93;7.80;;;;;;;0.59;100.00;96250.59;5079447;28;20581;-70
2020/12/02 03:57:24;;;;;;;17.57;7.53;;;;;;;0.49;100.00;96253.19;5078869;28;20203;-70
2020/12/02 03:59:50;;;;;;;21.87;8.60;;;;;;;0.58;100.00;96255.91;5079555;28;20222;-70
2020/12/02 04:02:16;;;;;;;19.30;7.87;;;;;;;0.50;100.00;96250.47;5079729;28;20214;-70
2020/12/02 04:04:42;;;;;;;18.23;7.90;;;;;;;0.55;100.00;96248.38;5078624;28;20207;-70
2020/12/02 04:07:08;;;;;;;19.93;8.57;;;;;;;0.37;100.00;96254.94;5079091;28;20199;-70
2020/12/02 04:09:35;;;;;;;19.40;8.70;;;;;;;0.60;100.00;96257.44;5078870;28;20267;-70
2020/12/02 04:12:01;;;;;;;18.37;8.43;;;;;;;0.45;100.00;96252.59;5078864;28;20195;-70
2020/12/02 04:14:27;;;;;;;21.23;8.30;;;;;;;0.28;100.00;96250.47;5079580;28;20214;-70
2020/12/02 04:16:53;;;;;;;21.00;8.57;;;;;;;0.29;100.00;96259.84;5078479;28;20688;-70
2020/12/02 04:19:19;;;;;;;19.07;7.77;;;;;;;0.37;100.00;96249.75;5078647;28;20335;-70
2020/12/02 04:21:45;;;;;;;19.87;7.93;;;;;;;0.32;100.00;96249.28;5078623;28;20204;-70
2020/12/02 04:24:11;;;;;;;24.37;9.20;;;;;;;0.34;100.00;96239.59;5079274;28;20680;-70
2020/12/02 04:26:38;;;;;;;22.90;8.77;;;;;;;0.50;100.00;96232.34;5078103;28;20218;-70
2020/12/02 04:29:04;;;;;;;20.80;8.23;;;;;;;0.47;100.00;96229.16;5078451;28;20219;-70
2020/12/02 04:31:30;;;;;;;23.77;9.17;;;;;;;0.70;100.00;96231.63;5079028;28;20210;-70
2020/12/02 04:33:56;;;;;;;22.73;8.53;;;;;;;0.68;100.00;96236.94;5078764;28;20208;-70
2020/12/02 04:36:22;;;;;;;23.20;9.40;;;;;;;0.82;100.00;96235.88;5077978;28;20957;-70
2020/12/02 04:38:48;;;;;;;26.40;9.50;;;;;;;0.67;100.00;96235.28;5078914;28;20326;-70
2020/12/02 04:41:16;;;;;;;23.40;8.97;;;;;;;0.70;100.00;96231.63;5079092;28;20465;-70
2020/12/02 04:43:47;;;;;;;22.50;8.80;;;;;;;0.71;100.00;96228.09;5078554;28;20583;-70
2020/12/02 04:46:14;;;;;;;26.63;9.57;;;;;;;0.86;100.00;96232.91;5078449;28;20586;-70
2020/12/02 04:48:42;;;;;;;22.53;9.10;;;;;;;0.47;100.00;96231.75;5078422;28;20258;-70
2020/12/02 04:51:14;;;;;;;25.77;9.77;;;;;;;0.55;100.00;96237.16;5078135;28;20207;-70
2020/12/02 04:53:43;;;;;;;23.50;10.00;;;;;;;0.69;100.00;96230.81;5078784;28;20207;-70
2020/12/02 04:56:09;;;;;;;29.93;10.37;;;;;;;0.70;100.00;96229.03;5078566;28;20622;-70
2020/12/02 04:58:37;;;;;;;29.53;10.90;;;;;;;0.89;100.00;96227.50;5077643;28;20326;-70
2020/12/02 05:01:18;;;;;;;26.97;10.40;;;;;;;0.72;100.00;96217.59;5077681;28;20200;-70
2020/12/02 05:03:52;;;;;;;31.40;11.43;;;;;;;0.90;100.00;96223.94;5078361;28;20203;-70
2020/12/02 05:06:23;;;;;;;31.53;11.30;;;;;;;0.73;100.00;96215.84;5077554;28;20214;-70
2020/12/02 05:08:49;;;;;;;35.37;12.37;;;;;;;0.83;100.00;96224.56;5077935;28;20223;-70
2020/12/02 05:11:15;;;;;;;36.67;12.73;;;;;;;0.74;100.00;96220.09;5078265;28;20203;-70
2020/12/02 05:13:58;;;;;;;37.30;13.40;;;;;;;0.84;100.00;96228.78;5077885;28;20200;-70
2020/12/02 05:16:25;;;;;;;42.80;13.93;;;;;;;0.69;100.00;96214.44;5076890;28;20218;-70
2020/12/02 05:18:58;;;;;;;38.43;13.23;;;;;;;0.67;100.00;96214.53;5078049;28;20250;-70
2020/12/02 05:21:24;;;;;;;41.27;15.10;;;;;;;0.80;100.00;96209.22;5077774;28;20214;-70
2020/12/02 05:24:03;;;;;;;41.40;14.27;;;;;;;0.83;100.00;96212.41;5077470;28;20211;-70
2020/12/02 05:26:30;;;;;;;46.67;16.10;;;;;;;0.77;100.00;96210.28;5076779;28;20211;-70
2020/12/02 05:28:57;;;;;;;45.80;15.27;;;;;;;0.73;100.00;96218.44;5077566;28;20223;-71
2020/12/02 05:31:27;;;;;;;43.63;14.77;;;;;;;0.65;100.00;96210.44;5076634;28;20550;-70
2020/12/02 05:33:53;;;;;;;42.93;13.07;;;;;;;0.87;100.00;96208.63;5077386;28;20203;-70
2020/12/02 05:36:24;;;;;;;46.47;16.23;;;;;;;0.77;100.00;96201.69;5077180;28;20203;-70
2020/12/02 05:38:56;;;;;;;44.33;14.43;;;;;;;0.72;100.00;96206.41;5077420;28;20231;-70
2020/12/02 05:41:25;;;;;;;50.70;15.10;;;;;;;0.70;100.00;96203.94;5077187;28;20219;-70
2020/12/02 05:43:56;;;;;;;53.23;17.70;;;;;;;0.64;100.00;96199.22;5077928;28;20210;-70
2020/12/02 05:46:28;;;;;;;53.47;16.70;;;;;;;0.65;100.00;96198.28;5076885;28;20595;-70
2020/12/02 05:48:59;;;;;;;55.50;17.33;;;;;;;0.62;100.00;96197.69;5077047;28;20672;-70
2020/12/02 05:51:25;;;;;;;55.47;17.63;;;;;;;0.56;100.00;96208.56;5077515;28;20303;-70
2020/12/02 05:53:55;;;;;;;60.87;19.77;;;;;;;0.74;100.00;96209.72;5077342;28;20961;-70
2020/12/02 05:56:21;;;;;;;62.27;20.03;;;;;;;0.40;100.00;96209.84;5076395;28;20589;-70
2020/12/02 05:58:47;;;;;;;65.40;20.33;;;;;;;0.23;100.00;96205.94;5077533;28;20243;-70
2020/12/02 06:01:16;;;;;;;64.67;21.67;;;;;;;0.26;100.00;96210.88;5077172;28;20510;-70
2020/12/02 06:03:46;;;;;;;66.20;22.17;;;;;;;0.27;100.00;96209.13;5076396;28;20207;-70
2020/12/02 06:06:14;;;;;;;66.97;22.00;;;;;;;0.23;100.00;96200.75;5076372;28;21075;-70
2020/12/02 06:08:43;;;;;;;65.03;20.57;;;;;;;0.26;100.00;96200.50;5077922;28;20694;-71
2020/12/02 06:11:26;;;;;;;60.40;18.70;;;;;;;0.22;100.00;96209.44;5076745;28;20207;-71
2020/12/02 06:13:54;;;;;;;61.13;21.10;;;;;;;0.09;100.00;96207.91;5074562;28;20220;-71
2020/12/02 06:16:38;;;;;;;61.70;21.87;;;;;;;0.42;100.00;96206.19;5076921;28;20212;-71
2020/12/02 06:19:14;;;;;;;62.93;21.13;;;;;;;0.25;100.00;96208.41;5076228;28;20628;-71
2020/12/02 06:21:43;;;;;;;65.83;22.17;;;;;;;0.28;100.00;96209.00;5076581;28;20259;-71
2020/12/02 06:24:11;;;;;;;69.73;22.47;;;;;;;0.17;100.00;96210.75;5076882;28;20201;-71
2020/12/02 06:26:39;;;;;;;84.13;25.50;;;;;;;0.06;100.00;96211.56;5076074;28;20233;-71
2020/12/02 06:29:07;;;;;;;82.53;24.70;;;;;;;-0.01;100.00;96212.94;5076823;28;20706;-71
2020/12/02 06:31:33;;;;;;;88.03;27.73;;;;;;;0.07;100.00;96210.59;5076746;28;20200;-71
2020/12/02 06:34:06;;;;;;;86.27;25.30;;;;;;;-0.12;100.00;96208.69;5076638;28;20200;-71
2020/12/02 06:36:36;;;;;;;88.27;26.97;;;;;;;-0.13;100.00;96207.03;5076041;28;20246;-71
2020/12/02 06:39:21;;;;;;;90.90;26.67;;;;;;;-0.19;100.00;96215.25;5076893;28;20222;-71
2020/12/02 06:41:47;;;;;;;93.67;27.13;;;;;;;-0.24;100.00;96207.81;5076013;28;20218;-71
2020/12/02 06:44:38;;;;;;;82.60;25.97;;;;;;;-0.23;100.00;96212.06;5080388;28;20199;-70
2020/12/02 06:47:29;;;;;;;110.23;28.30;;;;;;;-0.19;100.00;96207.47;5080110;28;20664;-71
2020/12/02 06:50:03;;;;;;;112.83;27.93;;;;;;;-0.10;100.00;96212.81;5080365;28;20278;-71
2020/12/02 06:52:33;;;;;;;114.97;27.47;;;;;;;-0.17;100.00;96211.59;5080751;28;20219;-71
2020/12/02 06:55:03;;;;;;;123.67;30.47;;;;;;;-0.19;100.00;96223.84;5080190;28;20212;-71
2020/12/02 06:57:30;;;;;;;116.47;30.50;;;;;;;-0.33;100.00;96225.78;5080478;28;20200;-71
2020/12/02 06:59:59;;;;;;;104.70;27.27;;;;;;;-0.30;100.00;96218.63;5080267;28;20597;-71
2020/12/02 07:02:44;;;;;;;96.07;27.37;;;;;;;-0.33;100.00;96220.59;5080660;28;20595;-71
2020/12/02 07:05:20;;;;;;;108.10;28.60;;;;;;;-0.28;100.00;96219.34;5079900;28;20215;-71
2020/12/02 07:07:47;;;;;;;97.00;27.37;;;;;;;-0.26;100.00;96221.81;5080342;28;20234;-71
2020/12/02 07:10:18;;;;;;;87.93;26.00;;;;;;;-0.30;100.00;96228.16;5080425;28;20227;-71
2020/12/02 07:12:45;;;;;;;77.03;23.30;;;;;;;-0.37;100.00;96225.19;5080126;28;20208;-71
2020/12/02 07:15:14;;;;;;;99.83;28.03;;;;;;;-0.39;100.00;96231.41;5079671;28;20202;-70
2020/12/02 07:17:40;;;;;;;85.83;25.50;;;;;;;-0.34;100.00;96221.56;5079892;28;20972;-71
2020/12/02 07:20:12;;;;;;;86.07;24.67;;;;;;;-0.49;100.00;96233.03;5080086;28;20200;-71
2020/12/02 07:22:45;;;;;;;76.37;22.97;;;;;;;-0.56;100.00;96219.69;5080390;28;20200;-71
2020/12/02 07:25:12;;;;;;;88.47;25.53;;;;;;;-0.57;100.00;96219.81;5079223;28;20208;-71
2020/12/02 07:27:42;;;;;;;72.63;23.00;;;;;;;-0.53;100.00;96229.81;5080058;28;20235;-71
2020/12/02 07:30:19;;;;;;;63.73;19.40;;;;;;;-0.52;100.00;96230.66;5080670;28;20285;-71
2020/12/02 07:32:45;;;;;;;81.87;22.00;;;;;;;-0.58;100.00;96231.09;5079379;28;20208;-71
2020/12/02 07:35:16;;;;;;;68.93;21.63;;;;;;;-0.66;100.00;96229.97;5078040;28;20238;-70
2020/12/02 07:37:42;;;;;;;82.97;22.33;;;;;;;-0.67;100.00;96231.75;5077936;28;20710;-71
2020/12/02 07:40:26;;;;;;;86.33;25.00;;;;;;;-0.64;100.00;96230.72;5079493;28;20223;-71
2020/12/02 07:42:53;;;;;;;68.83;20.57;;;;;;;-0.61;100.00;96226.16;5079052;28;20222;-71
2020/12/02 07:45:22;;;;;;;83.83;25.40;;;;;;;-0.65;100.00;96229.06;5078687;28;20201;-71
2020/12/02 07:47:51;;;;;;;62.77;19.47;;;;;;;-0.63;100.00;96233.19;5078887;28;20243;-71
2020/12/02 07:50:26;;;;;;;72.70;20.20;;;;;;;-0.58;100.00;96231.91;5078514;28;20296;-71
2020/12/02 07:52:56;;;;;;;80.07;23.10;;;;;;;-0.71;100.00;96232.06;5077830;28;20953;-71
2020/12/02 07:55:32;;;;;;;76.90;22.57;;;;;;;-0.73;100.00;96234.78;5077686;28;20213;-71
2020/12/02 07:57:59;;;;;;;91.23;24.33;;;;;;;-0.71;100.00;96237.25;5078766;28;20242;-71
2020/12/02 08:00:32;;;;;;;80.53;22.83;;;;;;;-0.70;100.00;96234.56;5079379;28;20209;-70
2020/12/02 08:02:58;;;;;;;80.60;22.80;;;;;;;-0.71;100.00;96235.50;5078765;28;20201;-71
2020/12/02 08:05:33;;;;;;;75.77;21.60;;;;;;;-0.68;100.00;96227.50;5078096;28;20205;-71
2020/12/02 08:07:59;;;;;;;70.23;20.23;;;;;;;-0.83;100.00;96236.34;5079284;28;20243;-71
2020/12/02 08:10:29;;;;;;;57.03;15.70;;;;;;;-0.87;100.00;96240.09;5079361;28;20283;-71
2020/12/02 08:12:55;;;;;;;58.23;16.73;;;;;;;-0.78;100.00;96239.44;5079024;28;20232;-71
2020/12/02 08:15:22;;;;;;;50.13;14.73;;;;;;;-0.99;100.00;96248.72;5078500;28;20234;-71
2020/12/02 08:18:14;;;;;;;45.53;14.43;;;;;;;-1.11;100.00;96236.69;5079022;28;20231;-71
2020/12/02 08:20:42;;;;;;;53.60;15.03;;;;;;;-1.03;100.00;96242.13;5078655;28;20214;-71
2020/12/02 08:23:14;;;;;;;39.97;13.23;;;;;;;-1.05;100.00;96251.75;5079360;28;20199;-71
2020/12/02 08:25:51;;;;;;;37.97;12.07;;;;;;;-1.08;100.00;96246.78;5078089;28;20219;-73
2020/12/02 08:28:22;;;;;;;45.50;14.30;;;;;;;-0.90;100.00;96245.50;5078572;28;20224;-71
2020/12/02 08:30:59;;;;;;;47.37;15.13;;;;;;;-0.96;100.00;96240.75;5078904;28;20210;-71
2020/12/02 08:33:25;;;;;;;40.67;12.80;;;;;;;-0.99;100.00;96240.97;5079143;28;20209;-71
2020/12/02 08:35:52;;;;;;;44.17;14.53;;;;;;;-0.94;100.00;96232.88;5077644;28;20300;-71
2020/12/02 08:38:26;;;;;;;49.77;15.47;;;;;;;-0.99;100.00;96229.81;5078505;28;20220;-71
2020/12/02 08:40:56;;;;;;;52.07;15.67;;;;;;;-0.93;100.00;96226.78;5078718;28;20265;-71
2020/12/02 08:43:32;;;;;;;51.90;15.37;;;;;;;-1.05;100.00;96220.72;5077984;28;20207;-71
2020/12/02 08:46:03;;;;;;;53.37;15.63;;;;;;;-1.04;100.00;96216.38;5077201;28;20203;-71
2020/12/02 08:48:29;;;;;;;51.37;11.70;;;;;;;-1.05;100.00;96219.91;5077588;28;20628;-71
2020/12/02 08:50:55;;;;;;;49.27;15.13;;;;;;;-1.20;100.00;96226.13;5077529;28;20267;-71
2020/12/02 08:53:24;;;;;;;52.63;15.90;;;;;;;-1.14;100.00;96211.03;5077708;28;20215;-71
2020/12/02 08:55:50;;;;;;;49.70;14.60;;;;;;;-1.08;100.00;96218.34;5077068;28;20200;-71
2020/12/02 08:58:17;;;;;;;55.03;16.53;;;;;;;-1.01;100.00;96219.56;5077557;28;20220;-71
2020/12/02 09:00:43;;;;;;;42.27;12.17;;;;;;;-1.13;100.00;96217.84;5077201;28;20205;-71
2020/12/02 09:03:09;;;;;;;43.40;13.10;;;;;;;-1.04;100.00;96211.22;5078471;28;20291;-71
2020/12/02 09:05:35;;;;;;;40.47;13.67;;;;;;;-0.91;100.00;96202.47;5076469;28;20208;-71
2020/12/02 09:08:02;;;;;;;38.23;13.57;;;;;;;-0.93;100.00;96204.34;5076624;28;20221;-71
2020/12/02 09:10:28;;;;;;;42.70;13.40;;;;;;;-0.81;100.00;96197.47;5077306;28;20232;-71
2020/12/02 09:12:54;;;;;;;46.27;14.83;;;;;;;-0.85;100.00;96196.88;5077831;28;20627;-71
2020/12/02 09:15:20;;;;;;;41.50;13.73;;;;;;;-0.78;100.00;96198.06;5076321;28;20207;-71
2020/12/02 09:17:46;;;;;;;44.33;14.27;;;;;;;-0.72;100.00;96182.09;5077605;28;20224;-71
2020/12/02 09:20:12;;;;;;;47.97;12.93;;;;;;;-0.74;100.00;96191.72;5076979;28;20340;-71
2020/12/02 09:22:38;;;;;;;36.13;11.83;;;;;;;-0.79;100.00;96186.09;5077268;28;20509;-71
2020/12/02 09:25:04;;;;;;;40.97;13.90;;;;;;;-0.67;100.00;96185.19;5076446;28;20236;-71
2020/12/02 09:27:31;;;;;;;43.30;13.53;;;;;;;-0.64;100.00;96181.56;5076379;28;20203;-71
2020/12/02 09:29:57;;;;;;;43.70;14.77;;;;;;;-0.70;100.00;96179.41;5076968;28;20223;-71
2020/12/02 09:32:24;;;;;;;40.93;13.80;;;;;;;-0.70;100.00;96180.25;5076605;28;20583;-71
2020/12/02 09:34:50;;;;;;;44.07;14.83;;;;;;;-0.70;100.00;96175.06;5076925;28;20219;-70
2020/12/02 09:37:17;;;;;;;42.53;13.77;;;;;;;-0.60;100.00;96182.06;5076159;28;20778;-70
2020/12/02 09:39:43;;;;;;;41.27;14.03;;;;;;;-0.51;100.00;96175.38;5076626;28;20202;-70
2020/12/02 09:42:54;;;;;;;37.73;12.93;;;;;;;-0.58;100.00;96167.22;5077632;28;20201;-71
2020/12/02 09:45:30;;;;;;;35.83;12.47;;;;;;;-0.56;100.00;96177.47;5066983;28;20274;-71
2020/12/02 09:47:57;;;;;;;48.07;15.73;;;;;;;-0.64;100.00;96169.44;5077365;28;20228;-71
2020/12/02 09:50:23;;;;;;;43.77;14.37;;;;;;;-0.61;100.00;96169.22;5077127;28;20393;-71
2020/12/02 09:52:50;;;;;;;40.40;14.27;;;;;;;-0.70;100.00;96162.16;5077452;28;20212;-70
2020/12/02 09:55:20;;;;;;;44.73;14.70;;;;;;;-0.73;100.00;96159.75;5076363;28;20204;-70
2020/12/02 09:57:46;;;;;;;48.27;14.57;;;;;;;-0.64;100.00;96164.25;5076017;28;20224;-70
2020/12/02 10:00:14;;;;;;;50.77;14.57;;;;;;;-0.55;100.00;96158.41;5075916;28;20666;-70
2020/12/02 10:03:10;;;;;;;42.80;13.27;;;;;;;-0.68;100.00;96168.00;5076401;28;20232;-70
2020/12/02 10:06:18;;;;;;;54.67;14.17;;;;;;;-0.68;100.00;96162.84;5076422;28;20578;-71
2020/12/02 10:09:00;;;;;;;42.67;12.87;;;;;;;-0.81;100.00;96163.84;5077106;28;20232;-71
2020/12/02 10:11:40;;;;;;;48.60;14.77;;;;;;;-0.87;100.00;96162.50;5076700;28;20207;-70
2020/12/02 10:14:30;;;;;;;39.10;13.03;;;;;;;-0.88;100.00;96154.88;5076832;28;20205;-71
2020/12/02 10:17:06;;;;;;;41.83;13.87;;;;;;;-0.96;100.00;96152.84;5067633;28;20200;-70
2020/12/02 10:20:02;;;;;;;42.57;12.97;;;;;;;-0.72;100.00;96143.31;5076566;28;20223;-70
2020/12/02 10:22:50;;;;;;;46.67;13.50;;;;;;;-0.82;100.00;96139.72;5076485;28;20674;-70
2020/12/02 10:25:23;;;;;;;47.93;14.27;;;;;;;-0.61;100.00;96146.75;5076745;28;20196;-70
2020/12/02 10:28:20;;;;;;;46.40;14.97;;;;;;;-0.64;100.00;96143.56;5076381;28;20219;-70
2020/12/02 10:30:55;;;;;;;46.73;14.67;;;;;;;-0.80;100.00;96140.47;5076733;28;20196;-70
2020/12/02 10:33:35;;;;;;;45.53;13.60;;;;;;;-0.72;100.00;96130.38;5077314;28;20200;-71
2020/12/02 10:36:01;;;;;;;51.83;15.47;;;;;;;-0.63;100.00;96129.69;5076078;28;20670;-71
2020/12/02 10:38:34;;;;;;;45.83;14.67;;;;;;;-0.41;100.00;96132.34;5076760;28;21005;-71
2020/12/02 10:41:19;;;;;;;48.27;14.50;;;;;;;-0.34;100.00;96130.97;5076486;28;20212;-71
2020/12/02 10:43:57;;;;;;;51.80;15.30;;;;;;;-0.67;100.00;96120.53;5076532;28;20211;-71
2020/12/02 10:46:33;;;;;;;53.70;15.60;;;;;;;-0.66;100.00;96114.41;5076144;28;20204;-71
2020/12/02 10:49:03;;;;;;;44.27;14.83;;;;;;;-0.54;100.00;96121.25;5076248;28;20219;-71
2020/12/02 10:51:36;;;;;;;53.30;16.07;;;;;;;-0.59;100.00;96110.41;5073217;28;20209;-71
2020/12/02 10:54:12;;;;;;;47.10;15.37;;;;;;;-0.66;100.00;96110.97;5076103;28;20196;-71
2020/12/02 10:56:41;;;;;;;50.70;15.20;;;;;;;-0.58;100.00;96110.31;5074202;28;20254;-71
2020/12/02 10:59:11;;;;;;;44.50;13.53;;;;;;;-0.51;100.00;96108.94;5076183;28;20219;-71
2020/12/02 11:01:38;;;;;;;53.73;17.20;;;;;;;-0.71;100.00;96101.00;5076638;28;20219;-71
2020/12/02 11:04:05;;;;;;;54.37;15.87;;;;;;;-0.44;100.00;96101.53;5076127;28;20199;-71
2020/12/02 11:06:53;;;;;;;58.20;17.43;;;;;;;-0.38;100.00;96104.47;5075314;28;20679;-71
2020/12/02 11:09:32;;;;;;;48.47;16.43;;;;;;;-0.39;100.00;96102.00;5075924;28;20606;-71
2020/12/02 11:12:16;;;;;;;49.53;15.77;;;;;;;-0.40;100.00;96100.34;5076310;28;20209;-71
2020/12/02 11:15:00;;;;;;;53.77;17.30;;;;;;;-0.39;100.00;96092.47;5075845;28;20208;-71
2020/12/02 11:17:35;;;;;;;58.37;17.37;;;;;;;-0.31;100.00;96089.31;5076586;28;20290;-71
2020/12/02 11:20:07;;;;;;;53.40;17.10;;;;;;;-0.36;100.00;96081.88;5075553;28;20196;-71
2020/12/02 11:22:46;;;;;;;51.60;17.00;;;;;;;-0.42;100.00;96081.50;5076475;28;20211;-71
2020/12/02 11:25:16;;;;;;;54.53;17.27;;;;;;;-0.40;100.00;96080.47;5075078;28;20737;-71
2020/12/02 11:27:43;;;;;;;68.50;20.63;;;;;;;-0.49;100.00;96075.97;5076112;28;20228;-71
2020/12/02 11:30:14;;;;;;;57.30;18.63;;;;;;;-0.61;100.00;96066.56;5077562;28;20239;-71
2020/12/02 11:33:05;;;;;;;67.23;20.50;;;;;;;-0.66;100.00;96069.59;5079835;28;20200;-71